sensor_id;sensor_type;location;lat;lon;timestamp;P1;durP1;ratioP1;P2;durP2;ratioP2
84623;SDS011;74849;51.340;12.610;2024-01-10T05:31:04;22.02;;;9.38;;
84623;SDS011;74849;51.340;12.610;2024-01-10T05:35:58;18.33;;;7.60;;
84623;SDS011;74849;51.340;12.610;2024-01-10T05:38:26;22.17;;;10.43;;
84623;SDS011;74849;51.340;12.610;2024-01-10T05:40:53;29.55;;;13.43;;
84623;SDS011;74849;51.340;12.610;2024-01-10T05:43:23;17.75;;;10.23;;
84623;SDS011;74849;51.340;12.610;2024-01-10T05:45:49;22.38;;;9.90;;
84623;SDS011;74849;51.340;12.610;2024-01-10T05:48:16;17.80;;;9.32;;
84623;SDS011;74849;51.340;12.610;2024-01-10T05:50:43;24.23;;;12.20;;
84623;SDS011;74849;51.340;12.610;2024-01-10T05:53:11;24.17;;;12.32;;
84623;SDS011;74849;51.340;12.610;2024-01-10T05:55:45;21.85;;;13.13;;
84623;SDS011;74849;51.340;12.610;2024-01-10T05:58:12;25.38;;;10.93;;
84623;SDS011;74849;51.340;12.610;2024-01-10T06:00:39;24.98;;;10.88;;
84623;SDS011;74849;51.340;12.610;2024-01-10T06:03:06;39.55;;;17.05;;
84623;SDS011;74849;51.340;12.610;2024-01-10T06:08:00;7.47;;;2.92;;
84623;SDS011;74849;51.340;12.610;2024-01-10T06:10:29;6.05;;;3.15;;
84623;SDS011;74849;51.340;12.610;2024-01-10T06:12:56;17.60;;;7.25;;
84623;SDS011;74849;51.340;12.610;2024-01-10T06:15:23;11.70;;;7.03;;
84623;SDS011;74849;51.340;12.610;2024-01-10T06:17:50;21.27;;;10.52;;
84623;SDS011;74849;51.340;12.610;2024-01-10T06:20:17;9.13;;;6.13;;
84623;SDS011;74849;51.340;12.610;2024-01-10T06:22:44;13.32;;;6.60;;
84623;SDS011;74849;51.340;12.610;2024-01-10T06:25:12;20.10;;;12.57;;
84623;SDS011;74849;51.340;12.610;2024-01-10T06:27:39;16.70;;;9.05;;
84623;SDS011;74849;51.340;12.610;2024-01-10T06:30:07;23.52;;;12.98;;
84623;SDS011;74849;51.340;12.610;2024-01-10T06:32:35;30.23;;;14.88;;
84623;SDS011;74849;51.340;12.610;2024-01-10T06:35:02;9.57;;;6.82;;
84623;SDS011;74849;51.340;12.610;2024-01-10T06:37:30;16.90;;;7.20;;
84623;SDS011;74849;51.340;12.610;2024-01-10T06:39:57;16.45;;;6.35;;
84623;SDS011;74849;51.340;12.610;2024-01-10T06:42:25;15.95;;;9.98;;
84623;SDS011;74849;51.340;12.610;2024-01-10T06:44:52;24.48;;;12.82;;
84623;SDS011;74849;51.340;12.610;2024-01-10T06:47:20;18.92;;;10.73;;
84623;SDS011;74849;51.340;12.610;2024-01-10T06:49:47;22.60;;;12.55;;
84623;SDS011;74849;51.340;12.610;2024-01-10T06:52:14;23.58;;;9.95;;
84623;SDS011;74849;51.340;12.610;2024-01-10T06:54:42;25.92;;;11.10;;
84623;SDS011;74849;51.340;12.610;2024-01-10T06:57:09;27.35;;;11.48;;
84623;SDS011;74849;51.340;12.610;2024-01-10T06:59:36;16.75;;;7.32;;
84623;SDS011;74849;51.340;12.610;2024-01-10T07:02:03;15.27;;;9.52;;
84623;SDS011;74849;51.340;12.610;2024-01-10T07:04:30;30.00;;;11.38;;
84623;SDS011;74849;51.340;12.610;2024-01-10T07:07:05;13.13;;;7.68;;
84623;SDS011;74849;51.340;12.610;2024-01-10T07:09:34;14.10;;;7.68;;
84623;SDS011;74849;51.340;12.610;2024-01-10T07:12:01;15.02;;;9.30;;
84623;SDS011;74849;51.340;12.610;2024-01-10T07:14:32;29.38;;;12.85;;
84623;SDS011;74849;51.340;12.610;2024-01-10T07:17:09;25.90;;;10.50;;
84623;SDS011;74849;51.340;12.610;2024-01-10T07:19:36;21.45;;;10.07;;
84623;SDS011;74849;51.340;12.610;2024-01-10T07:24:30;20.90;;;9.40;;
84623;SDS011;74849;51.340;12.610;2024-01-10T07:26:57;22.80;;;11.40;;
84623;SDS011;74849;51.340;12.610;2024-01-10T07:29:24;30.05;;;12.32;;
84623;SDS011;74849;51.340;12.610;2024-01-10T07:31:51;27.45;;;14.85;;
84623;SDS011;74849;51.340;12.610;2024-01-10T07:34:20;18.05;;;7.63;;
84623;SDS011;74849;51.340;12.610;2024-01-10T07:36:47;14.23;;;7.50;;
84623;SDS011;74849;51.340;12.610;2024-01-10T07:39:14;17.05;;;8.13;;
84623;SDS011;74849;51.340;12.610;2024-01-10T07:41:42;20.30;;;10.90;;
84623;SDS011;74849;51.340;12.610;2024-01-10T07:44:09;19.10;;;10.55;;
84623;SDS011;74849;51.340;12.610;2024-01-10T07:46:35;13.13;;;6.32;;
84623;SDS011;74849;51.340;12.610;2024-01-10T07:49:04;16.00;;;10.90;;
84623;SDS011;74849;51.340;12.610;2024-01-10T07:51:31;17.77;;;7.30;;
84623;SDS011;74849;51.340;12.610;2024-01-10T07:53:58;52.28;;;11.43;;
84623;SDS011;74849;51.340;12.610;2024-01-10T07:58:52;16.08;;;9.60;;
84623;SDS011;74849;51.340;12.610;2024-01-10T08:01:19;15.27;;;9.82;;
84623;SDS011;74849;51.340;12.610;2024-01-10T08:03:47;25.92;;;11.52;;
84623;SDS011;74849;51.340;12.610;2024-01-10T08:06:14;25.63;;;9.98;;
84623;SDS011;74849;51.340;12.610;2024-01-10T08:08:41;29.77;;;11.00;;
84623;SDS011;74849;51.340;12.610;2024-01-10T08:11:08;21.70;;;11.35;;
84623;SDS011;74849;51.340;12.610;2024-01-10T08:13:41;28.27;;;13.05;;
84623;SDS011;74849;51.340;12.610;2024-01-10T08:16:08;6.72;;;6.05;;
84623;SDS011;74849;51.340;12.610;2024-01-10T08:18:35;21.33;;;10.77;;
84623;SDS011;74849;51.340;12.610;2024-01-10T08:21:02;20.60;;;9.98;;
84623;SDS011;74849;51.340;12.610;2024-01-10T08:23:30;36.03;;;13.75;;
84623;SDS011;74849;51.340;12.610;2024-01-10T08:25:57;26.25;;;12.02;;
84623;SDS011;74849;51.340;12.610;2024-01-10T08:28:23;29.27;;;14.27;;
84623;SDS011;74849;51.340;12.610;2024-01-10T08:30:52;23.10;;;9.98;;
84623;SDS011;74849;51.340;12.610;2024-01-10T08:33:21;34.63;;;13.25;;
84623;SDS011;74849;51.340;12.610;2024-01-10T08:35:48;32.40;;;13.93;;
84623;SDS011;74849;51.340;12.610;2024-01-10T08:38:15;21.83;;;10.68;;
84623;SDS011;74849;51.340;12.610;2024-01-10T08:40:42;24.33;;;10.23;;
84623;SDS011;74849;51.340;12.610;2024-01-10T08:43:09;25.08;;;12.90;;
84623;SDS011;74849;51.340;12.610;2024-01-10T08:45:36;16.23;;;8.48;;
84623;SDS011;74849;51.340;12.610;2024-01-10T08:48:03;23.15;;;9.48;;
84623;SDS011;74849;51.340;12.610;2024-01-10T08:50:32;27.77;;;14.38;;
84623;SDS011;74849;51.340;12.610;2024-01-10T08:52:59;27.48;;;12.35;;
84623;SDS011;74849;51.340;12.610;2024-01-10T08:55:31;27.20;;;13.90;;
84623;SDS011;74849;51.340;12.610;2024-01-10T08:57:59;29.98;;;11.77;;
84623;SDS011;74849;51.340;12.610;2024-01-10T09:00:26;22.13;;;10.73;;
84623;SDS011;74849;51.340;12.610;2024-01-10T09:02:54;25.27;;;11.90;;
84623;SDS011;74849;51.340;12.610;2024-01-10T09:05:21;21.83;;;11.10;;
84623;SDS011;74849;51.340;12.610;2024-01-10T09:07:49;23.30;;;12.88;;
84623;SDS011;74849;51.340;12.610;2024-01-10T09:10:16;34.10;;;13.77;;
84623;SDS011;74849;51.340;12.610;2024-01-10T09:12:43;26.65;;;11.07;;
84623;SDS011;74849;51.340;12.610;2024-01-10T09:15:11;23.38;;;10.93;;
84623;SDS011;74849;51.340;12.610;2024-01-10T09:17:43;29.20;;;14.27;;
84623;SDS011;74849;51.340;12.610;2024-01-10T09:20:10;25.75;;;12.80;;
84623;SDS011;74849;51.340;12.610;2024-01-10T09:22:38;26.45;;;12.85;;
84623;SDS011;74849;51.340;12.610;2024-01-10T09:27:32;24.75;;;12.00;;
84623;SDS011;74849;51.340;12.610;2024-01-10T09:30:03;18.48;;;8.48;;
84623;SDS011;74849;51.340;12.610;2024-01-10T09:32:36;12.15;;;8.70;;
84623;SDS011;74849;51.340;12.610;2024-01-10T09:35:03;30.70;;;11.82;;
84623;SDS011;74849;51.340;12.610;2024-01-10T09:37:30;26.33;;;11.20;;
84623;SDS011;74849;51.340;12.610;2024-01-10T09:39:57;28.15;;;13.23;;
84623;SDS011;74849;51.340;12.610;2024-01-10T09:42:24;28.20;;;11.77;;
84623;SDS011;74849;51.340;12.610;2024-01-10T09:44:51;26.95;;;14.43;;
84623;SDS011;74849;51.340;12.610;2024-01-10T09:49:46;18.83;;;7.80;;
84623;SDS011;74849;51.340;12.610;2024-01-10T09:52:17;35.60;;;13.02;;
84623;SDS011;74849;51.340;12.610;2024-01-10T09:54:56;35.10;;;14.25;;
84623;SDS011;74849;51.340;12.610;2024-01-10T09:57:23;27.73;;;12.43;;
84623;SDS011;74849;51.340;12.610;2024-01-10T09:59:51;33.65;;;10.05;;
84623;SDS011;74849;51.340;12.610;2024-01-10T10:02:19;35.78;;;14.82;;
84623;SDS011;74849;51.340;12.610;2024-01-10T10:04:52;25.85;;;15.07;;
84623;SDS011;74849;51.340;12.610;2024-01-10T10:07:34;31.95;;;14.32;;
84623;SDS011;74849;51.340;12.610;2024-01-10T10:10:12;25.92;;;10.40;;
84623;SDS011;74849;51.340;12.610;2024-01-10T10:12:45;29.10;;;13.82;;
84623;SDS011;74849;51.340;12.610;2024-01-10T10:15:16;31.98;;;14.13;;
84623;SDS011;74849;51.340;12.610;2024-01-10T10:17:45;30.55;;;15.20;;
84623;SDS011;74849;51.340;12.610;2024-01-10T10:20:14;30.67;;;13.57;;
84623;SDS011;74849;51.340;12.610;2024-01-10T10:25:29;22.88;;;9.48;;
84623;SDS011;74849;51.340;12.610;2024-01-10T10:28:00;30.40;;;13.52;;
84623;SDS011;74849;51.340;12.610;2024-01-10T10:30:29;30.58;;;12.90;;
84623;SDS011;74849;51.340;12.610;2024-01-10T10:32:57;15.70;;;6.80;;
84623;SDS011;74849;51.340;12.610;2024-01-10T10:35:24;25.90;;;14.05;;
84623;SDS011;74849;51.340;12.610;2024-01-10T10:37:51;28.33;;;14.68;;
84623;SDS011;74849;51.340;12.610;2024-01-10T10:40:19;27.48;;;13.52;;
84623;SDS011;74849;51.340;12.610;2024-01-10T10:42:47;23.73;;;12.40;;
84623;SDS011;74849;51.340;12.610;2024-01-10T10:45:16;29.00;;;11.27;;
84623;SDS011;74849;51.340;12.610;2024-01-10T10:47:45;25.13;;;12.20;;
84623;SDS011;74849;51.340;12.610;2024-01-10T10:50:22;33.53;;;13.73;;
84623;SDS011;74849;51.340;12.610;2024-01-10T10:52:50;21.05;;;10.88;;
84623;SDS011;74849;51.340;12.610;2024-01-10T10:55:18;29.63;;;14.57;;
84623;SDS011;74849;51.340;12.610;2024-01-10T10:57:45;19.73;;;9.23;;
84623;SDS011;74849;51.340;12.610;2024-01-10T11:00:14;33.65;;;14.88;;
84623;SDS011;74849;51.340;12.610;2024-01-10T11:02:46;29.35;;;13.13;;
84623;SDS011;74849;51.340;12.610;2024-01-10T11:05:13;22.92;;;8.55;;
84623;SDS011;74849;51.340;12.610;2024-01-10T11:07:41;33.10;;;13.93;;
84623;SDS011;74849;51.340;12.610;2024-01-10T11:10:11;21.95;;;10.70;;
84623;SDS011;74849;51.340;12.610;2024-01-10T11:15:52;21.35;;;8.65;;
84623;SDS011;74849;51.340;12.610;2024-01-10T11:19:01;13.50;;;6.75;;
84623;SDS011;74849;51.340;12.610;2024-01-10T11:24:39;25.88;;;12.15;;
84623;SDS011;74849;51.340;12.610;2024-01-10T11:27:13;35.78;;;12.38;;
84623;SDS011;74849;51.340;12.610;2024-01-10T11:29:41;33.10;;;15.02;;
84623;SDS011;74849;51.340;12.610;2024-01-10T11:32:15;16.83;;;8.90;;
84623;SDS011;74849;51.340;12.610;2024-01-10T11:37:47;30.77;;;13.90;;
84623;SDS011;74849;51.340;12.610;2024-01-10T11:40:16;31.52;;;12.88;;
84623;SDS011;74849;51.340;12.610;2024-01-10T11:43:12;19.02;;;9.63;;
84623;SDS011;74849;51.340;12.610;2024-01-10T11:45:50;35.08;;;14.25;;
84623;SDS011;74849;51.340;12.610;2024-01-10T11:48:25;29.48;;;14.93;;
84623;SDS011;74849;51.340;12.610;2024-01-10T11:50:56;33.17;;;14.52;;
84623;SDS011;74849;51.340;12.610;2024-01-10T11:53:43;34.97;;;14.98;;
84623;SDS011;74849;51.340;12.610;2024-01-10T11:56:16;33.60;;;13.90;;
84623;SDS011;74849;51.340;12.610;2024-01-10T12:01:21;32.05;;;14.73;;
84623;SDS011;74849;51.340;12.610;2024-01-10T12:03:50;38.13;;;14.95;;
84623;SDS011;74849;51.340;12.610;2024-01-10T12:06:19;29.70;;;14.43;;
84623;SDS011;74849;51.340;12.610;2024-01-10T12:08:48;36.83;;;15.43;;
84623;SDS011;74849;51.340;12.610;2024-01-10T12:11:16;25.75;;;11.63;;
84623;SDS011;74849;51.340;12.610;2024-01-10T12:13:43;28.42;;;14.13;;
84623;SDS011;74849;51.340;12.610;2024-01-10T12:16:11;29.35;;;13.40;;
84623;SDS011;74849;51.340;12.610;2024-01-10T12:18:43;40.88;;;15.35;;
84623;SDS011;74849;51.340;12.610;2024-01-10T12:21:10;27.48;;;12.15;;
84623;SDS011;74849;51.340;12.610;2024-01-10T12:23:38;42.58;;;16.13;;
84623;SDS011;74849;51.340;12.610;2024-01-10T12:26:07;27.98;;;13.38;;
84623;SDS011;74849;51.340;12.610;2024-01-10T12:28:35;33.28;;;15.73;;
84623;SDS011;74849;51.340;12.610;2024-01-10T12:33:30;24.85;;;12.63;;
84623;SDS011;74849;51.340;12.610;2024-01-10T12:36:10;14.93;;;7.70;;
84623;SDS011;74849;51.340;12.610;2024-01-10T12:38:38;21.33;;;11.75;;
84623;SDS011;74849;51.340;12.610;2024-01-10T12:41:05;34.70;;;16.45;;
84623;SDS011;74849;51.340;12.610;2024-01-10T12:43:35;35.72;;;15.13;;
84623;SDS011;74849;51.340;12.610;2024-01-10T12:46:02;23.85;;;10.82;;
84623;SDS011;74849;51.340;12.610;2024-01-10T12:48:33;32.70;;;14.77;;
84623;SDS011;74849;51.340;12.610;2024-01-10T12:51:03;23.92;;;12.48;;
84623;SDS011;74849;51.340;12.610;2024-01-10T12:53:38;30.33;;;13.20;;
84623;SDS011;74849;51.340;12.610;2024-01-10T12:56:09;28.88;;;12.70;;
84623;SDS011;74849;51.340;12.610;2024-01-10T12:58:40;39.30;;;15.20;;
84623;SDS011;74849;51.340;12.610;2024-01-10T13:01:08;37.55;;;16.70;;
84623;SDS011;74849;51.340;12.610;2024-01-10T13:03:35;47.25;;;17.77;;
84623;SDS011;74849;51.340;12.610;2024-01-10T13:06:02;40.35;;;17.45;;
84623;SDS011;74849;51.340;12.610;2024-01-10T13:08:30;38.67;;;15.50;;
84623;SDS011;74849;51.340;12.610;2024-01-10T13:10:57;36.42;;;15.23;;
84623;SDS011;74849;51.340;12.610;2024-01-10T13:13:27;34.60;;;13.98;;
84623;SDS011;74849;51.340;12.610;2024-01-10T13:15:54;38.35;;;19.13;;
84623;SDS011;74849;51.340;12.610;2024-01-10T13:20:48;28.25;;;12.60;;
84623;SDS011;74849;51.340;12.610;2024-01-10T13:23:15;24.55;;;12.57;;
84623;SDS011;74849;51.340;12.610;2024-01-10T13:25:44;32.78;;;16.38;;
84623;SDS011;74849;51.340;12.610;2024-01-10T13:28:11;35.17;;;16.75;;
84623;SDS011;74849;51.340;12.610;2024-01-10T13:33:07;18.05;;;12.30;;
84623;SDS011;74849;51.340;12.610;2024-01-10T13:35:35;37.05;;;18.55;;
84623;SDS011;74849;51.340;12.610;2024-01-10T13:38:02;28.98;;;14.90;;
84623;SDS011;74849;51.340;12.610;2024-01-10T13:40:30;36.47;;;15.68;;
84623;SDS011;74849;51.340;12.610;2024-01-10T13:42:59;35.38;;;15.45;;
84623;SDS011;74849;51.340;12.610;2024-01-10T13:45:29;45.60;;;19.35;;
84623;SDS011;74849;51.340;12.610;2024-01-10T13:47:56;36.22;;;15.57;;
84623;SDS011;74849;51.340;12.610;2024-01-10T13:50:23;32.53;;;14.88;;
84623;SDS011;74849;51.340;12.610;2024-01-10T13:52:51;38.65;;;17.90;;
84623;SDS011;74849;51.340;12.610;2024-01-10T13:55:19;40.13;;;13.93;;
84623;SDS011;74849;51.340;12.610;2024-01-10T13:57:46;35.10;;;14.30;;
84623;SDS011;74849;51.340;12.610;2024-01-10T14:00:13;34.45;;;14.60;;
84623;SDS011;74849;51.340;12.610;2024-01-10T14:02:43;30.88;;;14.82;;
84623;SDS011;74849;51.340;12.610;2024-01-10T14:05:10;21.10;;;10.43;;
84623;SDS011;74849;51.340;12.610;2024-01-10T14:07:37;37.85;;;16.65;;
84623;SDS011;74849;51.340;12.610;2024-01-10T14:10:04;44.53;;;18.65;;
84623;SDS011;74849;51.340;12.610;2024-01-10T14:12:31;28.73;;;12.85;;
84623;SDS011;74849;51.340;12.610;2024-01-10T14:14:58;30.65;;;13.98;;
84623;SDS011;74849;51.340;12.610;2024-01-10T14:17:25;34.53;;;15.55;;
84623;SDS011;74849;51.340;12.610;2024-01-10T14:19:52;38.15;;;16.00;;
84623;SDS011;74849;51.340;12.610;2024-01-10T14:22:20;35.70;;;15.55;;
84623;SDS011;74849;51.340;12.610;2024-01-10T14:24:49;41.03;;;17.08;;
84623;SDS011;74849;51.340;12.610;2024-01-10T14:27:16;32.92;;;14.65;;
84623;SDS011;74849;51.340;12.610;2024-01-10T14:32:10;30.73;;;13.00;;
84623;SDS011;74849;51.340;12.610;2024-01-10T14:37:07;24.70;;;12.80;;
84623;SDS011;74849;51.340;12.610;2024-01-10T14:39:34;43.40;;;18.65;;
84623;SDS011;74849;51.340;12.610;2024-01-10T14:42:05;32.90;;;16.40;;
84623;SDS011;74849;51.340;12.610;2024-01-10T14:44:33;31.85;;;12.93;;
84623;SDS011;74849;51.340;12.610;2024-01-10T14:47:00;45.50;;;17.42;;
84623;SDS011;74849;51.340;12.610;2024-01-10T14:49:28;45.30;;;17.77;;
84623;SDS011;74849;51.340;12.610;2024-01-10T14:51:56;39.63;;;18.75;;
84623;SDS011;74849;51.340;12.610;2024-01-10T14:54:23;42.08;;;16.50;;
84623;SDS011;74849;51.340;12.610;2024-01-10T14:56:50;46.13;;;18.08;;
84623;SDS011;74849;51.340;12.610;2024-01-10T14:59:18;39.03;;;16.45;;
84623;SDS011;74849;51.340;12.610;2024-01-10T15:04:12;40.38;;;18.10;;
84623;SDS011;74849;51.340;12.610;2024-01-10T15:06:43;44.78;;;19.67;;
84623;SDS011;74849;51.340;12.610;2024-01-10T15:09:11;36.92;;;18.10;;
84623;SDS011;74849;51.340;12.610;2024-01-10T15:11:39;37.20;;;16.98;;
84623;SDS011;74849;51.340;12.610;2024-01-10T15:14:09;43.05;;;21.00;;
84623;SDS011;74849;51.340;12.610;2024-01-10T15:16:36;42.83;;;17.45;;
84623;SDS011;74849;51.340;12.610;2024-01-10T15:19:03;38.33;;;16.30;;
84623;SDS011;74849;51.340;12.610;2024-01-10T15:21:30;39.10;;;19.20;;
84623;SDS011;74849;51.340;12.610;2024-01-10T15:23:57;45.28;;;21.25;;
84623;SDS011;74849;51.340;12.610;2024-01-10T15:26:25;52.88;;;22.13;;
84623;SDS011;74849;51.340;12.610;2024-01-10T15:28:53;36.63;;;16.98;;
84623;SDS011;74849;51.340;12.610;2024-01-10T15:31:20;43.50;;;23.55;;
84623;SDS011;74849;51.340;12.610;2024-01-10T15:33:47;40.08;;;19.15;;
84623;SDS011;74849;51.340;12.610;2024-01-10T15:36:15;52.28;;;23.17;;
84623;SDS011;74849;51.340;12.610;2024-01-10T15:38:42;45.13;;;19.98;;
84623;SDS011;74849;51.340;12.610;2024-01-10T15:41:09;43.22;;;18.50;;
84623;SDS011;74849;51.340;12.610;2024-01-10T15:43:37;59.47;;;20.60;;
84623;SDS011;74849;51.340;12.610;2024-01-10T15:46:04;53.10;;;20.63;;
84623;SDS011;74849;51.340;12.610;2024-01-10T15:50:57;31.48;;;16.00;;
84623;SDS011;74849;51.340;12.610;2024-01-10T15:53:24;30.40;;;13.52;;
84623;SDS011;74849;51.340;12.610;2024-01-10T15:55:51;43.40;;;18.05;;
84623;SDS011;74849;51.340;12.610;2024-01-10T16:00:45;29.58;;;15.75;;
84623;SDS011;74849;51.340;12.610;2024-01-10T16:03:12;51.20;;;21.50;;
84623;SDS011;74849;51.340;12.610;2024-01-10T16:05:39;33.03;;;17.85;;
84623;SDS011;74849;51.340;12.610;2024-01-10T16:08:06;46.85;;;22.67;;
84623;SDS011;74849;51.340;12.610;2024-01-10T16:10:33;34.60;;;16.95;;
84623;SDS011;74849;51.340;12.610;2024-01-10T16:15:26;46.25;;;22.08;;
84623;SDS011;74849;51.340;12.610;2024-01-10T16:17:53;47.83;;;18.42;;
84623;SDS011;74849;51.340;12.610;2024-01-10T16:22:47;29.90;;;14.00;;
84623;SDS011;74849;51.340;12.610;2024-01-10T16:27:41;27.92;;;13.15;;
84623;SDS011;74849;51.340;12.610;2024-01-10T16:30:08;20.52;;;11.10;;
84623;SDS011;74849;51.340;12.610;2024-01-10T16:32:35;34.75;;;16.13;;
84623;SDS011;74849;51.340;12.610;2024-01-10T16:35:02;38.35;;;17.05;;
84623;SDS011;74849;51.340;12.610;2024-01-10T16:37:30;35.58;;;17.95;;
84623;SDS011;74849;51.340;12.610;2024-01-10T16:39:57;42.83;;;19.60;;
84623;SDS011;74849;51.340;12.610;2024-01-10T16:42:24;38.90;;;17.05;;
84623;SDS011;74849;51.340;12.610;2024-01-10T16:44:51;46.42;;;21.65;;
84623;SDS011;74849;51.340;12.610;2024-01-10T16:47:18;49.33;;;18.70;;
84623;SDS011;74849;51.340;12.610;2024-01-10T16:49:45;34.95;;;16.48;;
84623;SDS011;74849;51.340;12.610;2024-01-10T16:52:11;18.90;;;8.23;;
84623;SDS011;74849;51.340;12.610;2024-01-10T16:54:38;46.10;;;18.98;;
84623;SDS011;74849;51.340;12.610;2024-01-10T16:57:05;35.80;;;17.02;;
84623;SDS011;74849;51.340;12.610;2024-01-10T16:59:32;50.78;;;18.25;;
84623;SDS011;74849;51.340;12.610;2024-01-10T17:01:59;21.92;;;11.00;;
84623;SDS011;74849;51.340;12.610;2024-01-10T17:04:26;47.55;;;15.50;;
84623;SDS011;74849;51.340;12.610;2024-01-10T17:06:53;30.42;;;13.70;;
84623;SDS011;74849;51.340;12.610;2024-01-10T17:09:20;39.42;;;18.23;;
84623;SDS011;74849;51.340;12.610;2024-01-10T17:11:47;46.50;;;22.35;;
84623;SDS011;74849;51.340;12.610;2024-01-10T17:14:14;52.20;;;21.17;;
84623;SDS011;74849;51.340;12.610;2024-01-10T17:16:42;38.47;;;16.70;;
84623;SDS011;74849;51.340;12.610;2024-01-10T17:21:36;51.97;;;19.90;;
84623;SDS011;74849;51.340;12.610;2024-01-10T17:24:03;69.60;;;29.30;;
84623;SDS011;74849;51.340;12.610;2024-01-10T17:26:30;65.90;;;30.73;;
84623;SDS011;74849;51.340;12.610;2024-01-10T17:28:57;42.10;;;24.75;;
84623;SDS011;74849;51.340;12.610;2024-01-10T17:31:24;50.50;;;19.13;;
84623;SDS011;74849;51.340;12.610;2024-01-10T17:33:51;56.83;;;23.20;;
84623;SDS011;74849;51.340;12.610;2024-01-10T17:38:45;36.80;;;16.95;;
84623;SDS011;74849;51.340;12.610;2024-01-10T17:41:12;62.65;;;32.33;;
84623;SDS011;74849;51.340;12.610;2024-01-10T17:46:07;45.67;;;26.42;;
84623;SDS011;74849;51.340;12.610;2024-01-10T17:48:33;55.33;;;28.38;;
84623;SDS011;74849;51.340;12.610;2024-01-10T17:53:27;38.70;;;17.23;;
84623;SDS011;74849;51.340;12.610;2024-01-10T17:55:54;46.00;;;18.60;;
84623;SDS011;74849;51.340;12.610;2024-01-10T17:58:21;31.10;;;14.98;;
84623;SDS011;74849;51.340;12.610;2024-01-10T18:00:48;39.05;;;20.80;;
84623;SDS011;74849;51.340;12.610;2024-01-10T18:03:15;53.60;;;22.13;;
84623;SDS011;74849;51.340;12.610;2024-01-10T18:05:42;65.05;;;31.95;;
84623;SDS011;74849;51.340;12.610;2024-01-10T18:08:09;52.05;;;25.42;;
84623;SDS011;74849;51.340;12.610;2024-01-10T18:10:36;73.93;;;38.38;;
84623;SDS011;74849;51.340;12.610;2024-01-10T18:15:30;45.72;;;19.58;;
84623;SDS011;74849;51.340;12.610;2024-01-10T18:17:58;44.38;;;21.60;;
84623;SDS011;74849;51.340;12.610;2024-01-10T18:20:25;44.22;;;17.65;;
84623;SDS011;74849;51.340;12.610;2024-01-10T18:22:52;42.63;;;19.75;;
84623;SDS011;74849;51.340;12.610;2024-01-10T18:25:19;57.55;;;21.17;;
84623;SDS011;74849;51.340;12.610;2024-01-10T18:27:46;53.03;;;20.98;;
84623;SDS011;74849;51.340;12.610;2024-01-10T18:30:13;44.90;;;18.65;;
84623;SDS011;74849;51.340;12.610;2024-01-10T18:35:07;35.72;;;16.25;;
84623;SDS011;74849;51.340;12.610;2024-01-10T18:37:35;53.70;;;20.40;;
84623;SDS011;74849;51.340;12.610;2024-01-10T18:40:01;40.72;;;18.45;;
84623;SDS011;74849;51.340;12.610;2024-01-10T18:44:55;39.15;;;17.13;;
84623;SDS011;74849;51.340;12.610;2024-01-10T18:47:22;48.95;;;19.30;;
84623;SDS011;74849;51.340;12.610;2024-01-10T18:49:49;42.45;;;20.38;;
84623;SDS011;74849;51.340;12.610;2024-01-10T18:52:16;49.70;;;22.08;;
84623;SDS011;74849;51.340;12.610;2024-01-10T18:54:43;46.03;;;20.30;;
84623;SDS011;74849;51.340;12.610;2024-01-10T18:57:10;43.90;;;20.35;;
84623;SDS011;74849;51.340;12.610;2024-01-10T18:59:38;42.55;;;19.30;;
84623;SDS011;74849;51.340;12.610;2024-01-10T19:02:05;44.65;;;17.90;;
84623;SDS011;74849;51.340;12.610;2024-01-10T19:04:35;49.55;;;20.30;;
84623;SDS011;74849;51.340;12.610;2024-01-10T19:07:03;48.53;;;21.65;;
84623;SDS011;74849;51.340;12.610;2024-01-10T19:09:31;49.28;;;20.52;;
84623;SDS011;74849;51.340;12.610;2024-01-10T19:11:58;46.47;;;20.90;;
84623;SDS011;74849;51.340;12.610;2024-01-10T19:14:25;49.58;;;20.10;;
84623;SDS011;74849;51.340;12.610;2024-01-10T19:16:51;52.00;;;22.52;;
84623;SDS011;74849;51.340;12.610;2024-01-10T19:19:18;47.22;;;21.17;;
84623;SDS011;74849;51.340;12.610;2024-01-10T19:21:48;59.17;;;21.10;;
84623;SDS011;74849;51.340;12.610;2024-01-10T19:24:15;45.83;;;20.13;;
84623;SDS011;74849;51.340;12.610;2024-01-10T19:26:41;47.67;;;20.33;;
84623;SDS011;74849;51.340;12.610;2024-01-10T19:29:08;55.47;;;24.50;;
84623;SDS011;74849;51.340;12.610;2024-01-10T19:31:35;61.45;;;25.15;;
84623;SDS011;74849;51.340;12.610;2024-01-10T19:34:02;74.68;;;24.27;;
84623;SDS011;74849;51.340;12.610;2024-01-10T19:36:29;66.28;;;24.55;;
84623;SDS011;74849;51.340;12.610;2024-01-10T19:38:56;84.50;;;26.45;;
84623;SDS011;74849;51.340;12.610;2024-01-10T19:41:24;64.70;;;25.17;;
84623;SDS011;74849;51.340;12.610;2024-01-10T19:43:52;71.60;;;24.65;;
84623;SDS011;74849;51.340;12.610;2024-01-10T19:46:19;53.13;;;25.45;;
84623;SDS011;74849;51.340;12.610;2024-01-10T19:48:46;59.85;;;21.17;;
84623;SDS011;74849;51.340;12.610;2024-01-10T19:51:13;52.30;;;21.85;;
84623;SDS011;74849;51.340;12.610;2024-01-10T19:53:41;45.72;;;20.50;;
84623;SDS011;74849;51.340;12.610;2024-01-10T19:56:14;42.67;;;20.45;;
84623;SDS011;74849;51.340;12.610;2024-01-10T19:58:42;50.55;;;21.00;;
84623;SDS011;74849;51.340;12.610;2024-01-10T20:01:09;41.92;;;18.60;;
84623;SDS011;74849;51.340;12.610;2024-01-10T20:03:36;44.55;;;19.42;;
84623;SDS011;74849;51.340;12.610;2024-01-10T20:06:05;44.47;;;19.77;;
84623;SDS011;74849;51.340;12.610;2024-01-10T20:08:32;46.33;;;21.35;;
84623;SDS011;74849;51.340;12.610;2024-01-10T20:10:59;55.17;;;22.42;;
84623;SDS011;74849;51.340;12.610;2024-01-10T20:13:26;51.95;;;21.45;;
84623;SDS011;74849;51.340;12.610;2024-01-10T20:15:53;51.92;;;22.65;;
84623;SDS011;74849;51.340;12.610;2024-01-10T20:18:20;48.42;;;20.63;;
84623;SDS011;74849;51.340;12.610;2024-01-10T20:20:47;46.38;;;23.05;;
84623;SDS011;74849;51.340;12.610;2024-01-10T20:23:14;47.97;;;20.77;;
84623;SDS011;74849;51.340;12.610;2024-01-10T20:25:41;43.58;;;19.92;;
84623;SDS011;74849;51.340;12.610;2024-01-10T20:28:11;45.05;;;18.63;;
84623;SDS011;74849;51.340;12.610;2024-01-10T20:30:39;41.20;;;18.95;;
84623;SDS011;74849;51.340;12.610;2024-01-10T20:33:06;48.47;;;18.45;;
84623;SDS011;74849;51.340;12.610;2024-01-10T20:35:32;44.58;;;19.75;;
84623;SDS011;74849;51.340;12.610;2024-01-10T20:37:59;46.08;;;18.67;;
84623;SDS011;74849;51.340;12.610;2024-01-10T20:42:53;27.85;;;16.17;;
84623;SDS011;74849;51.340;12.610;2024-01-10T20:45:20;39.38;;;16.70;;
84623;SDS011;74849;51.340;12.610;2024-01-10T20:47:48;47.92;;;19.52;;
84623;SDS011;74849;51.340;12.610;2024-01-10T20:52:42;39.33;;;18.38;;
84623;SDS011;74849;51.340;12.610;2024-01-10T20:55:09;37.25;;;16.52;;
84623;SDS011;74849;51.340;12.610;2024-01-10T20:57:36;50.75;;;23.23;;
84623;SDS011;74849;51.340;12.610;2024-01-10T21:00:03;61.10;;;33.30;;
84623;SDS011;74849;51.340;12.610;2024-01-10T21:02:31;62.55;;;25.30;;
84623;SDS011;74849;51.340;12.610;2024-01-10T21:04:59;48.45;;;24.30;;